createdAt,value
2018-01-26T00:00:06.315Z,163.03
2018-01-26T00:02:34.032Z,157.47
2018-01-26T00:05:00.803Z,153.40
2018-01-26T00:07:27.552Z,146.17
2018-01-26T00:09:54.283Z,130.27
2018-01-26T00:12:21.953Z,118.13
2018-01-26T00:14:48.687Z,113.50
2018-01-26T00:17:16.390Z,125.57
2018-01-26T00:19:44.168Z,117.67
2018-01-26T00:22:11.887Z,114.63
2018-01-26T00:24:39.559Z,121.33
2018-01-26T00:27:06.286Z,128.20
2018-01-26T00:29:33.963Z,123.53
2018-01-26T00:32:01.644Z,116.33
2018-01-26T00:34:29.354Z,128.13
2018-01-26T00:36:56.044Z,137.63
2018-01-26T00:39:27.943Z,138.93
2018-01-26T00:41:54.674Z,138.40
2018-01-26T00:44:21.399Z,139.70
2018-01-26T00:46:48.127Z,155.80
2018-01-26T00:49:15.843Z,152.37
2018-01-26T00:51:43.465Z,141.93
2018-01-26T00:54:11.151Z,139.27
2018-01-26T00:56:37.925Z,139.43
2018-01-26T00:59:04.625Z,139.00
2018-01-26T01:01:32.291Z,149.87
2018-01-26T01:04:01.022Z,147.70
2018-01-26T01:06:27.747Z,135.83
2018-01-26T01:08:54.459Z,134.23
2018-01-26T01:11:22.208Z,134.07
2018-01-26T01:13:50.924Z,139.00
2018-01-26T01:16:18.592Z,128.93
2018-01-26T01:18:46.287Z,127.53
2018-01-26T01:21:12.998Z,128.40
2018-01-26T01:23:40.686Z,133.90
2018-01-26T01:26:07.464Z,122.27
2018-01-26T01:28:36.108Z,122.47
2018-01-26T01:31:03.774Z,118.80
2018-01-26T01:33:31.474Z,108.17
2018-01-26T01:35:58.178Z,119.87
2018-01-26T01:38:24.919Z,116.43
2018-01-26T01:40:52.652Z,111.67
2018-01-26T01:43:20.359Z,112.90
2018-01-26T01:45:49.069Z,100.87
2018-01-26T01:48:15.830Z,100.67
2018-01-26T01:50:44.488Z,99.90
2018-01-26T01:53:13.230Z,94.87
2018-01-26T01:55:40.992Z,88.43
2018-01-26T01:58:07.674Z,91.07
2018-01-26T02:00:35.358Z,86.00
2018-01-26T02:03:02.137Z,82.10
2018-01-26T02:05:29.882Z,82.90
2018-01-26T02:07:56.596Z,80.83
2018-01-26T02:10:23.324Z,76.80
2018-01-26T02:12:50.018Z,76.67
2018-01-26T02:15:16.747Z,71.93
2018-01-26T02:17:43.510Z,70.37
2018-01-26T02:20:10.970Z,78.87
2018-01-26T02:22:37.696Z,70.70
2018-01-26T02:25:05.382Z,71.67
2018-01-26T02:27:32.507Z,73.77
2018-01-26T02:30:01.209Z,77.30
2018-01-26T02:32:28.916Z,78.17
2018-01-26T02:34:56.634Z,75.63
2018-01-26T02:37:24.292Z,73.93
2018-01-26T02:39:52.017Z,73.70
2018-01-26T02:42:20.652Z,82.57
2018-01-26T02:44:47.400Z,76.97
2018-01-26T02:47:16.134Z,80.37
2018-01-26T02:49:42.833Z,95.73
2018-01-26T02:52:09.568Z,94.70
2018-01-26T02:54:37.286Z,105.83
2018-01-26T02:57:06.041Z,105.20
2018-01-26T02:59:33.699Z,98.20
2018-01-26T03:02:01.404Z,93.97
2018-01-26T03:04:30.058Z,90.07
2018-01-26T03:06:58.752Z,84.37
2018-01-26T03:09:26.450Z,82.60
2018-01-26T03:11:54.176Z,72.30
2018-01-26T03:14:21.853Z,74.07
2018-01-26T03:16:50.619Z,66.07
2018-01-26T03:19:18.316Z,64.20
2018-01-26T03:21:45.978Z,64.63
2018-01-26T03:24:13.673Z,59.57
2018-01-26T03:26:41.412Z,61.90
2018-01-26T03:29:08.158Z,60.53
2018-01-26T03:31:34.938Z,61.47
2018-01-26T03:34:01.626Z,63.13
2018-01-26T03:36:29.340Z,65.13
2018-01-26T03:38:57.104Z,63.33
2018-01-26T03:41:25.756Z,63.53
2018-01-26T03:43:54.452Z,64.07
2018-01-26T03:46:22.148Z,67.63
2018-01-26T03:48:49.786Z,67.40
2018-01-26T03:51:17.455Z,65.20
2018-01-26T03:53:44.224Z,65.53
2018-01-26T03:56:12.006Z,67.73
2018-01-26T03:58:39.728Z,64.53
2018-01-26T04:01:07.442Z,62.33
2018-01-26T04:03:35.167Z,60.67
2018-01-26T04:06:02.835Z,61.90
2018-01-26T04:08:31.556Z,64.50
2018-01-26T04:10:59.187Z,62.67
2018-01-26T04:13:25.926Z,68.03
2018-01-26T04:15:53.632Z,66.30
2018-01-26T04:18:20.372Z,95.20
2018-01-26T04:20:47.092Z,81.43
2018-01-26T04:23:13.892Z,78.30
2018-01-26T04:25:41.614Z,76.43
2018-01-26T04:28:09.264Z,82.77
2018-01-26T04:30:36.982Z,88.53
2018-01-26T04:33:03.682Z,91.60
2018-01-26T04:35:30.408Z,119.27
2018-01-26T04:37:58.132Z,112.03
2018-01-26T04:40:25.874Z,97.60
2018-01-26T04:42:52.594Z,92.40
2018-01-26T04:45:20.315Z,83.67
2018-01-26T04:47:47.064Z,76.47
2018-01-26T04:50:14.676Z,79.57
2018-01-26T04:52:41.462Z,72.83
2018-01-26T04:55:08.217Z,76.23
2018-01-26T04:57:34.915Z,78.37
2018-01-26T05:00:01.690Z,76.00
2018-01-26T05:02:29.428Z,81.70
2018-01-26T05:04:57.088Z,95.00
2018-01-26T05:07:24.811Z,89.60
2018-01-26T05:09:52.514Z,97.50
2018-01-26T05:12:21.226Z,97.07
2018-01-26T05:14:48.030Z,105.80
2018-01-26T05:17:15.726Z,106.50
2018-01-26T05:19:43.414Z,114.37
2018-01-26T05:22:10.178Z,103.03
2018-01-26T05:24:38.836Z,102.47
2018-01-26T05:27:05.591Z,102.17
2018-01-26T05:29:32.370Z,101.53
2018-01-26T05:32:00.193Z,102.37
2018-01-26T05:34:28.028Z,97.07
2018-01-26T05:36:55.800Z,99.00
2018-01-26T05:39:24.528Z,109.70
2018-01-26T05:41:51.293Z,117.80
2018-01-26T05:44:18.962Z,110.53
2018-01-26T05:46:47.632Z,103.10
2018-01-26T05:49:14.403Z,132.73
2018-01-26T05:51:42.180Z,142.13
2018-01-26T05:54:10.942Z,152.53
2018-01-26T05:56:37.667Z,157.97
2018-01-26T05:59:04.444Z,162.13
2018-01-26T06:01:32.182Z,166.77
2018-01-26T06:03:59.857Z,170.87
2018-01-26T06:06:27.671Z,169.77
2018-01-26T06:08:55.387Z,144.67
2018-01-26T06:11:23.056Z,138.27
2018-01-26T06:13:49.826Z,128.80
2018-01-26T06:16:18.484Z,131.67
2018-01-26T06:18:50.110Z,126.37
2018-01-26T06:21:17.818Z,129.87
2018-01-26T06:23:44.562Z,129.43
2018-01-26T06:26:11.347Z,142.73
2018-01-26T06:28:39.077Z,144.90
2018-01-26T06:31:05.825Z,144.60
2018-01-26T06:33:32.592Z,144.90
2018-01-26T06:45:40.358Z,133.23
2018-01-26T06:48:08.112Z,127.43
2018-01-26T06:50:34.930Z,138.73
2018-01-26T06:53:03.686Z,143.93
2018-01-26T06:55:30.422Z,140.90
2018-01-26T06:57:58.156Z,144.83
2018-01-26T07:00:24.934Z,151.23
2018-01-26T07:02:52.662Z,153.20
2018-01-26T07:05:20.348Z,148.47
2018-01-26T07:07:47.114Z,146.50
2018-01-26T07:10:13.824Z,148.43
2018-01-26T07:12:41.491Z,149.00
2018-01-26T07:15:09.190Z,149.13
2018-01-26T07:17:37.279Z,149.77
2018-01-26T07:20:04.996Z,149.13
2018-01-26T07:22:31.784Z,142.30
2018-01-26T07:24:59.522Z,138.30
2018-01-26T07:27:26.265Z,133.57
2018-01-26T07:29:53.049Z,138.07
2018-01-26T07:32:20.788Z,141.83
2018-01-26T07:34:47.518Z,135.17
2018-01-26T07:37:14.306Z,134.10
2018-01-26T07:39:42.028Z,138.50
2018-01-26T07:42:09.822Z,137.33
2018-01-26T07:44:36.572Z,138.17
2018-01-26T07:47:04.307Z,140.23
2018-01-26T07:49:31.099Z,142.27
2018-01-26T07:51:58.866Z,141.50
2018-01-26T07:54:26.599Z,140.43
2018-01-26T07:56:53.366Z,139.93
2018-01-26T07:59:21.040Z,145.03
2018-01-26T08:01:47.757Z,136.23
2018-01-26T08:04:14.556Z,132.30
2018-01-26T08:06:42.304Z,125.27
2018-01-26T08:09:10.051Z,123.93
2018-01-26T08:11:36.780Z,124.50
2018-01-26T08:14:04.308Z,118.90
2018-01-26T08:16:32.001Z,115.87
2018-01-26T08:18:58.690Z,115.30
2018-01-26T08:21:25.420Z,111.03
2018-01-26T08:23:53.154Z,109.87
2018-01-26T08:26:20.818Z,113.40
2018-01-26T08:28:47.597Z,111.73
2018-01-26T08:31:16.303Z,113.17
2018-01-26T08:33:44.755Z,111.80
2018-01-26T08:36:13.474Z,114.33
2018-01-26T08:38:41.208Z,115.80
2018-01-26T08:41:11.430Z,110.97
2018-01-26T08:43:38.207Z,114.47
2018-01-26T08:46:06.716Z,113.20
2018-01-26T08:48:38.592Z,104.83
2018-01-26T08:51:05.354Z,107.37
2018-01-26T08:53:33.032Z,105.73
2018-01-26T08:56:00.763Z,101.97
2018-01-26T08:58:29.494Z,107.93
2018-01-26T09:00:57.172Z,109.17
2018-01-26T09:03:24.010Z,117.47
2018-01-26T09:05:51.675Z,112.47
2018-01-26T09:08:21.213Z,109.87
2018-01-26T09:10:47.991Z,109.60
2018-01-26T09:13:14.683Z,104.53
2018-01-26T09:15:41.424Z,106.20
2018-01-26T09:18:08.174Z,102.67
2018-01-26T09:20:36.862Z,99.97
2018-01-26T09:23:04.595Z,97.20
2018-01-26T09:25:31.336Z,96.93
2018-01-26T09:27:59.030Z,96.30
2018-01-26T09:30:26.706Z,98.20
2018-01-26T09:32:54.467Z,95.67
2018-01-26T09:35:21.212Z,100.03
2018-01-26T09:37:47.963Z,99.47
2018-01-26T09:40:14.765Z,99.20
2018-01-26T09:42:42.471Z,98.43
2018-01-26T09:45:09.222Z,105.77
2018-01-26T09:47:37.937Z,109.60
2018-01-26T09:50:05.654Z,109.80
2018-01-26T09:52:32.403Z,112.07
2018-01-26T09:55:00.139Z,111.30
2018-01-26T09:57:27.840Z,107.20
2018-01-26T09:59:55.507Z,107.60
2018-01-26T10:02:22.297Z,111.40
2018-01-26T10:04:50.011Z,109.93
2018-01-26T10:07:16.706Z,111.13
2018-01-26T10:09:43.463Z,112.60
2018-01-26T10:12:10.153Z,108.87
2018-01-26T10:14:36.895Z,112.57
2018-01-26T10:17:04.515Z,117.53
2018-01-26T10:19:32.227Z,114.77
2018-01-26T10:21:59.883Z,114.87
2018-01-26T10:24:27.649Z,118.20
2018-01-26T10:26:56.211Z,117.23
2018-01-26T10:29:23.911Z,119.40
2018-01-26T10:31:52.667Z,117.97
2018-01-26T10:34:20.361Z,118.47
2018-01-26T10:36:48.032Z,119.67
2018-01-26T10:39:15.763Z,116.07
2018-01-26T10:41:43.474Z,118.77
2018-01-26T10:44:10.187Z,112.27
2018-01-26T10:46:37.943Z,107.07
2018-01-26T10:49:04.682Z,103.90
2018-01-26T10:51:32.755Z,102.67
2018-01-26T10:54:03.384Z,99.10
2018-01-26T10:56:31.099Z,101.27
2018-01-26T10:58:58.825Z,101.83
2018-01-26T11:01:29.017Z,101.00
2018-01-26T11:03:56.600Z,99.57
2018-01-26T11:06:24.323Z,96.77
2018-01-26T11:08:53.027Z,91.73
2018-01-26T11:11:23.975Z,87.67
2018-01-26T11:13:52.669Z,87.00
2018-01-26T11:16:19.408Z,86.13
2018-01-26T11:18:46.119Z,86.00
2018-01-26T11:21:13.801Z,84.70
2018-01-26T11:23:41.499Z,87.53
2018-01-26T11:26:09.244Z,86.17
2018-01-26T11:28:35.935Z,88.77
2018-01-26T11:31:02.669Z,86.83
2018-01-26T11:33:30.427Z,88.80
2018-01-26T11:35:58.165Z,90.17
2018-01-26T11:38:24.922Z,87.97
2018-01-26T11:40:52.564Z,88.23
2018-01-26T11:43:20.223Z,87.57
2018-01-26T11:45:47.950Z,89.57
2018-01-26T11:48:18.755Z,88.30
2018-01-26T11:50:46.407Z,88.63
2018-01-26T11:53:13.268Z,88.93
2018-01-26T11:55:39.987Z,89.10
2018-01-26T11:58:07.657Z,88.43
2018-01-26T12:00:35.397Z,89.80
2018-01-26T12:03:03.099Z,87.83
2018-01-26T12:05:29.786Z,90.53
2018-01-26T12:07:57.570Z,87.93
2018-01-26T12:10:25.318Z,87.27
2018-01-26T12:12:53.054Z,86.07
2018-01-26T12:15:20.041Z,86.37
2018-01-26T12:17:46.745Z,87.17
2018-01-26T12:20:13.435Z,88.33
2018-01-26T12:22:40.199Z,86.27
2018-01-26T12:25:06.917Z,88.47
2018-01-26T12:27:33.633Z,83.23
2018-01-26T12:39:41.402Z,58.07
2018-01-26T12:42:08.087Z,49.63
2018-01-26T12:44:35.132Z,50.17
2018-01-26T12:47:02.923Z,47.43
2018-01-26T12:49:30.637Z,45.10
2018-01-26T12:51:57.324Z,36.90
2018-01-26T12:54:24.029Z,34.43
2018-01-26T12:56:51.695Z,34.43
2018-01-26T12:59:19.355Z,35.90
2018-01-26T13:01:46.173Z,34.77
2018-01-26T13:04:13.874Z,36.03
2018-01-26T13:06:41.537Z,35.17
2018-01-26T13:09:09.232Z,33.80
2018-01-26T13:11:35.933Z,35.90
2018-01-26T13:14:03.675Z,34.73
2018-01-26T13:16:31.409Z,35.53
2018-01-26T13:18:59.162Z,36.43
2018-01-26T13:21:25.887Z,35.10
2018-01-26T13:23:52.613Z,35.37
2018-01-26T13:26:20.989Z,34.80
2018-01-26T13:28:48.667Z,38.07
2018-01-26T13:31:17.429Z,35.63
2018-01-26T13:33:46.145Z,34.13
2018-01-26T13:36:14.847Z,34.23
2018-01-26T13:38:41.583Z,32.87
2018-01-26T13:41:09.578Z,33.43
2018-01-26T13:43:37.239Z,34.40
2018-01-26T13:46:03.960Z,35.83
2018-01-26T13:48:31.895Z,36.43
2018-01-26T13:51:00.537Z,35.53
2018-01-26T13:53:27.321Z,35.00
2018-01-26T13:55:55.809Z,33.83
2018-01-26T13:58:26.655Z,32.53
2018-01-26T14:00:53.417Z,33.83
2018-01-26T14:03:21.120Z,32.60
2018-01-26T14:05:52.769Z,34.20
2018-01-26T14:08:20.495Z,35.57
2018-01-26T14:10:48.217Z,35.73
2018-01-26T14:13:14.891Z,38.60
2018-01-26T14:15:41.642Z,36.80
2018-01-26T14:18:10.293Z,38.63
2018-01-26T14:20:37.954Z,41.47
2018-01-26T14:23:05.655Z,41.03
2018-01-26T14:25:33.284Z,40.20
2018-01-26T14:28:00.955Z,42.10
2018-01-26T14:30:28.658Z,45.03
2018-01-26T14:32:57.423Z,41.90
2018-01-26T14:35:25.073Z,44.50
2018-01-26T14:37:52.779Z,45.03
2018-01-26T14:40:19.476Z,47.37
2018-01-26T14:42:47.176Z,51.73
2018-01-26T14:45:13.943Z,50.97
2018-01-26T14:47:41.672Z,58.23
2018-01-26T14:50:08.355Z,59.03
2018-01-26T14:52:37.145Z,60.83
2018-01-26T14:55:04.863Z,59.47
2018-01-26T14:57:32.537Z,53.77
2018-01-26T14:59:59.296Z,60.00
2018-01-26T15:02:26.947Z,61.33
2018-01-26T15:04:53.631Z,62.70
2018-01-26T15:07:20.414Z,59.97
2018-01-26T15:09:48.087Z,59.70
2018-01-26T15:12:15.773Z,61.07
2018-01-26T15:14:42.507Z,61.63
2018-01-26T15:17:10.183Z,63.40
2018-01-26T15:19:36.916Z,64.73
2018-01-26T15:22:04.650Z,68.90
2018-01-26T15:24:32.357Z,72.73
2018-01-26T15:26:59.095Z,70.20
2018-01-26T15:29:26.849Z,70.20
2018-01-26T15:31:54.539Z,80.23
2018-01-26T15:34:22.202Z,82.10
2018-01-26T15:36:49.891Z,80.83
2018-01-26T15:39:16.607Z,78.63
2018-01-26T15:41:44.291Z,80.20
2018-01-26T15:44:11.068Z,78.83
2018-01-26T15:56:18.839Z,85.73
2018-01-26T15:58:46.573Z,80.40
2018-01-26T16:01:14.283Z,83.50
2018-01-26T16:03:42.967Z,86.27
2018-01-26T16:06:10.699Z,89.23
2018-01-26T16:08:37.408Z,81.17
2018-01-26T16:11:05.212Z,85.50
2018-01-26T16:13:31.897Z,87.27
2018-01-26T16:16:04.585Z,85.13
2018-01-26T16:18:31.309Z,95.90
2018-01-26T16:21:03.793Z,104.00
2018-01-26T16:23:31.464Z,109.53
2018-01-26T16:25:59.245Z,107.77
2018-01-26T16:28:27.013Z,115.93
2018-01-26T16:30:55.688Z,117.23
2018-01-26T16:33:23.349Z,118.33
2018-01-26T16:35:50.062Z,117.10
2018-01-26T16:38:17.756Z,113.53
2018-01-26T16:40:55.095Z,119.97
2018-01-26T16:43:27.117Z,116.20
2018-01-26T16:45:53.821Z,119.90
2018-01-26T16:48:21.530Z,112.73
2018-01-26T16:50:49.313Z,113.93
2018-01-26T16:53:17.056Z,110.40
2018-01-26T16:55:43.827Z,104.10
2018-01-26T16:58:11.590Z,108.67
2018-01-26T17:00:40.204Z,112.97
2018-01-26T17:03:07.899Z,120.87
2018-01-26T17:05:35.642Z,119.57
2018-01-26T17:08:04.379Z,121.33
2018-01-26T17:10:31.103Z,122.40
2018-01-26T17:12:58.806Z,119.07
2018-01-26T17:15:26.552Z,129.77
2018-01-26T17:17:53.289Z,142.77
2018-01-26T17:20:21.087Z,148.20
2018-01-26T17:22:48.720Z,160.43
2018-01-26T17:25:15.497Z,174.40
2018-01-26T17:27:42.254Z,211.17
2018-01-26T17:30:09.987Z,215.77
2018-01-26T17:32:36.710Z,228.93
2018-01-26T17:35:04.426Z,203.73
2018-01-26T17:37:32.055Z,200.43
2018-01-26T17:40:00.767Z,172.90
2018-01-26T17:42:27.593Z,150.87
2018-01-26T17:44:55.274Z,141.07
2018-01-26T17:47:22.014Z,127.80
2018-01-26T17:49:48.747Z,116.00
2018-01-26T17:52:16.405Z,111.07
2018-01-26T17:54:43.100Z,108.67
2018-01-26T17:57:10.912Z,101.03
2018-01-26T17:59:39.644Z,90.73
2018-01-26T18:02:06.349Z,88.13
2018-01-26T18:04:34.095Z,89.33
2018-01-26T18:07:01.831Z,88.80
2018-01-26T18:09:28.537Z,84.50
2018-01-26T18:11:56.263Z,86.03
2018-01-26T18:14:22.965Z,83.63
2018-01-26T18:16:49.728Z,83.90
2018-01-26T18:19:17.505Z,81.57
2018-01-26T18:21:44.218Z,81.07
2018-01-26T18:24:10.958Z,74.23
2018-01-26T18:26:37.695Z,76.73
2018-01-26T18:29:05.361Z,74.77
2018-01-26T18:31:33.023Z,79.20
2018-01-26T18:34:00.784Z,78.17
2018-01-26T18:36:28.467Z,89.07
2018-01-26T18:38:56.128Z,91.60
2018-01-26T18:41:23.827Z,98.57
2018-01-26T18:43:50.555Z,100.43
2018-01-26T18:46:19.229Z,107.20
2018-01-26T18:48:46.950Z,113.07
2018-01-26T18:51:14.674Z,114.87
2018-01-26T18:53:41.401Z,117.30
2018-01-26T18:56:10.125Z,119.67
2018-01-26T18:58:36.944Z,112.67
2018-01-26T19:01:04.619Z,119.40
2018-01-26T19:03:31.366Z,119.03
2018-01-26T19:05:59.032Z,122.43
2018-01-26T19:08:25.811Z,121.13
2018-01-26T19:10:52.548Z,109.17
2018-01-26T19:13:19.262Z,97.27
2018-01-26T19:15:46.975Z,90.67
2018-01-26T19:18:15.141Z,81.77
2018-01-26T19:20:42.889Z,76.50
2018-01-26T19:23:09.605Z,75.87
2018-01-26T19:25:37.328Z,71.00
2018-01-26T19:28:05.065Z,70.80
2018-01-26T19:30:31.833Z,66.77
2018-01-26T19:32:58.593Z,67.57
2018-01-26T19:35:25.276Z,68.03
2018-01-26T19:37:52.980Z,66.57
2018-01-26T19:40:19.939Z,67.03
2018-01-26T19:42:47.663Z,69.57
2018-01-26T19:45:15.329Z,69.03
2018-01-26T19:47:43.045Z,69.77
2018-01-26T19:50:11.706Z,68.13
2018-01-26T19:52:40.402Z,67.83
2018-01-26T19:55:07.413Z,72.13
2018-01-26T19:57:35.070Z,76.10
2018-01-26T20:00:01.843Z,75.83
2018-01-26T20:02:29.535Z,73.30
2018-01-26T20:05:08.859Z,71.13
2018-01-26T20:07:42.466Z,77.43
2018-01-26T20:10:09.224Z,73.90
2018-01-26T20:12:54.690Z,72.40
2018-01-26T20:15:21.434Z,68.90
2018-01-26T20:17:48.738Z,68.70
2018-01-26T20:20:17.511Z,71.43
2018-01-26T20:22:44.226Z,71.13
2018-01-26T20:25:11.212Z,69.27
2018-01-26T20:27:38.295Z,74.17
2018-01-26T20:30:07.014Z,72.30
2018-01-26T20:32:33.777Z,71.93
2018-01-26T20:35:01.467Z,66.23
2018-01-26T20:37:29.273Z,67.10
2018-01-26T20:39:57.002Z,66.63
2018-01-26T20:42:24.752Z,65.97
2018-01-26T20:44:51.561Z,74.93
2018-01-26T20:47:19.240Z,66.90
2018-01-26T20:49:46.049Z,73.97
2018-01-26T20:52:14.755Z,65.57
2018-01-26T20:54:43.690Z,66.40
2018-01-26T20:57:11.526Z,66.77
2018-01-26T20:59:39.494Z,65.40
2018-01-26T21:02:08.362Z,66.93
2018-01-26T21:04:36.126Z,67.83
2018-01-26T21:07:03.055Z,62.37
2018-01-26T21:09:30.999Z,65.93
2018-01-26T21:11:58.814Z,67.87
2018-01-26T21:14:27.670Z,77.43
2018-01-26T21:16:54.414Z,87.60
2018-01-26T21:19:21.250Z,87.37
2018-01-26T21:21:48.909Z,82.87
2018-01-26T21:24:16.593Z,82.60
2018-01-26T21:26:43.382Z,84.80
2018-01-26T21:29:11.092Z,80.27
2018-01-26T21:31:38.795Z,76.20
2018-01-26T21:34:07.491Z,76.33
2018-01-26T21:36:35.206Z,73.83
2018-01-26T21:39:02.951Z,74.27
2018-01-26T21:41:30.694Z,68.80
2018-01-26T21:43:57.454Z,68.73
2018-01-26T21:46:25.148Z,66.33
2018-01-26T21:48:52.865Z,64.23
2018-01-26T21:51:20.586Z,73.57
2018-01-26T21:53:48.262Z,72.13
2018-01-26T21:56:15.993Z,69.00
2018-01-26T21:58:43.696Z,69.47
2018-01-26T22:01:11.396Z,64.37
2018-01-26T22:03:39.169Z,64.47
2018-01-26T22:06:23.517Z,72.53
2018-01-26T22:08:50.314Z,71.67
2018-01-26T22:11:18.000Z,72.57
2018-01-26T22:13:44.748Z,63.33
2018-01-26T22:16:11.470Z,62.77
2018-01-26T22:18:39.168Z,61.30
2018-01-26T22:21:05.902Z,60.77
2018-01-26T22:23:32.658Z,62.37
2018-01-26T22:25:59.385Z,56.33
2018-01-26T22:28:27.058Z,60.53
2018-01-26T22:30:53.826Z,60.57
2018-01-26T22:33:20.565Z,59.77
2018-01-26T22:35:48.204Z,59.50
2018-01-26T22:38:15.912Z,60.00
2018-01-26T22:40:44.536Z,60.63
2018-01-26T22:43:11.236Z,60.17
2018-01-26T22:45:39.828Z,62.70
2018-01-26T22:48:08.472Z,62.17
2018-01-26T22:50:37.174Z,63.20
2018-01-26T22:53:05.922Z,62.87
2018-01-26T22:55:33.616Z,59.80
2018-01-26T22:58:01.302Z,54.47
2018-01-26T23:00:29.508Z,54.80
2018-01-26T23:02:56.227Z,57.60
2018-01-26T23:05:22.967Z,53.23
2018-01-26T23:07:50.686Z,54.37
2018-01-26T23:10:17.372Z,52.50
2018-01-26T23:12:49.022Z,51.87
2018-01-26T23:15:17.748Z,50.40
2018-01-26T23:17:44.473Z,51.40
2018-01-26T23:20:12.130Z,52.80
2018-01-26T23:22:39.847Z,52.93
2018-01-26T23:25:07.566Z,52.33
2018-01-26T23:27:35.232Z,51.33
2018-01-26T23:30:03.798Z,53.03
2018-01-26T23:32:31.496Z,51.10
2018-01-26T23:34:59.154Z,53.30
2018-01-26T23:37:26.856Z,54.77
2018-01-26T23:39:54.384Z,53.57
2018-01-26T23:42:22.070Z,59.67
2018-01-26T23:44:48.836Z,56.33
2018-01-26T23:47:19.131Z,57.70
2018-01-26T23:49:45.921Z,56.00
2018-01-26T23:52:13.668Z,58.83
2018-01-26T23:54:41.298Z,58.33
2018-01-26T23:57:09.995Z,57.53
2018-01-26T23:59:37.746Z,57.90
